createdAt,value
2022-09-17T00:00:23.081Z,83.95
2022-09-17T00:03:28.368Z,83.80
2022-09-17T00:06:20.539Z,83.90
2022-09-17T00:09:12.689Z,84.04
2022-09-17T00:12:05.244Z,84.08
2022-09-17T00:14:57.265Z,84.13
2022-09-17T00:17:49.570Z,84.11
2022-09-17T00:20:43.197Z,84.38
2022-09-17T00:23:35.435Z,84.49
2022-09-17T00:26:29.059Z,84.61
2022-09-17T00:29:21.062Z,84.53
2022-09-17T00:32:13.123Z,84.63
2022-09-17T00:35:05.643Z,84.31
2022-09-17T00:37:57.694Z,84.38
2022-09-17T00:40:49.724Z,84.53
2022-09-17T00:43:44.608Z,84.37
2022-09-17T00:46:40.058Z,84.30
2022-09-17T00:49:29.625Z,84.21
2022-09-17T00:52:25.056Z,84.04
2022-09-17T00:55:22.533Z,83.82
2022-09-17T00:58:17.828Z,83.74
2022-09-17T01:01:09.893Z,83.69
2022-09-17T01:04:02.470Z,83.55
2022-09-17T01:07:07.238Z,83.73
2022-09-17T01:10:10.329Z,83.91
2022-09-17T01:13:14.757Z,83.99
2022-09-17T01:16:16.523Z,83.96
2022-09-17T01:19:27.231Z,83.83
2022-09-17T01:22:12.650Z,83.84
2022-09-17T01:25:19.044Z,83.82
2022-09-17T01:28:39.356Z,83.76
2022-09-17T01:31:41.789Z,83.63
2022-09-17T01:34:43.175Z,83.66
2022-09-17T01:37:39.673Z,83.88
2022-09-17T01:40:29.979Z,84.07
2022-09-17T01:43:25.822Z,84.20
2022-09-17T01:46:26.882Z,84.16
2022-09-17T01:49:21.502Z,84.25
2022-09-17T01:52:16.444Z,84.01
2022-09-17T01:55:12.448Z,84.09
2022-09-17T01:58:11.142Z,84.08
2022-09-17T02:01:06.624Z,84.09
2022-09-17T02:04:04.420Z,84.13
2022-09-17T02:06:52.918Z,84.07
2022-09-17T02:09:47.705Z,84.27
2022-09-17T02:12:44.839Z,84.34
2022-09-17T02:15:43.675Z,84.49
2022-09-17T02:18:41.497Z,84.54
2022-09-17T02:21:39.753Z,84.80
2022-09-17T02:24:36.809Z,84.76
2022-09-17T02:27:39.181Z,84.76
2022-09-17T02:30:32.259Z,84.59
2022-09-17T02:33:07.406Z,84.39
2022-09-17T02:35:50.439Z,84.42
2022-09-17T02:38:45.345Z,84.19
2022-09-17T02:41:48.031Z,84.13
2022-09-17T02:44:47.952Z,84.01
2022-09-17T02:47:53.331Z,83.90
2022-09-17T02:51:07.134Z,83.91
2022-09-17T02:53:48.603Z,84.03
2022-09-17T02:56:52.113Z,84.06
2022-09-17T02:59:54.655Z,84.19
2022-09-17T03:02:49.737Z,84.30
2022-09-17T03:05:42.405Z,84.28
2022-09-17T03:08:38.218Z,84.33
2022-09-17T03:11:20.637Z,84.27
2022-09-17T03:14:11.463Z,84.32
2022-09-17T03:17:03.591Z,84.42
2022-09-17T03:19:48.338Z,84.54
2022-09-17T03:22:40.396Z,84.66
2022-09-17T03:25:32.461Z,84.75
2022-09-17T03:28:26.007Z,84.46
2022-09-17T03:31:17.980Z,84.76
2022-09-17T03:34:10.206Z,84.73
2022-09-17T03:37:02.488Z,84.70
2022-09-17T03:39:54.543Z,84.57
2022-09-17T03:42:46.567Z,84.66
2022-09-17T03:45:38.825Z,84.63
2022-09-17T03:48:30.914Z,84.87
2022-09-17T03:51:23.104Z,84.92
2022-09-17T03:54:15.158Z,85.09
2022-09-17T03:57:07.325Z,85.15
2022-09-17T03:59:59.402Z,85.41
2022-09-17T04:02:51.390Z,85.47
2022-09-17T04:05:43.390Z,85.52
2022-09-17T04:08:36.738Z,85.43
2022-09-17T04:11:28.915Z,85.53
2022-09-17T04:14:20.918Z,85.44
2022-09-17T04:16:52.822Z,85.42
2022-09-17T04:19:44.815Z,85.42
2022-09-17T04:22:36.984Z,85.46
2022-09-17T04:25:29.112Z,85.59
2022-09-17T04:28:00.807Z,85.65
2022-09-17T04:30:52.553Z,85.81
2022-09-17T04:33:44.548Z,85.91
2022-09-17T04:36:35.329Z,86.39
2022-09-17T04:39:27.315Z,86.45
2022-09-17T04:42:19.480Z,86.29
2022-09-17T04:44:53.560Z,86.12
2022-09-17T04:47:45.676Z,85.73
2022-09-17T04:50:37.684Z,85.77
2022-09-17T04:53:29.809Z,85.78
2022-09-17T04:56:22.037Z,85.73
2022-09-17T04:59:14.170Z,85.58
2022-09-17T05:01:56.307Z,85.54
2022-09-17T05:04:48.490Z,85.57
2022-09-17T05:07:30.413Z,85.46
2022-09-17T05:10:18.625Z,85.13
2022-09-17T05:13:00.557Z,85.28
2022-09-17T05:15:52.810Z,85.36
2022-09-17T05:18:44.890Z,85.22
2022-09-17T05:21:36.808Z,85.51
2022-09-17T05:24:28.780Z,85.47
2022-09-17T05:27:20.800Z,85.63
2022-09-17T05:30:13.699Z,85.60
2022-09-17T05:32:50.440Z,85.38
2022-09-17T05:35:44.196Z,85.27
2022-09-17T05:38:36.118Z,85.31
2022-09-17T05:41:28.194Z,85.25
2022-09-17T05:44:20.738Z,85.34
2022-09-17T05:47:12.752Z,84.95
2022-09-17T05:50:03.159Z,84.60
2022-09-17T05:52:55.803Z,84.56
2022-09-17T05:55:47.956Z,84.34
2022-09-17T05:58:33.173Z,84.03
2022-09-17T06:01:25.679Z,83.45
2022-09-17T06:04:18.187Z,83.29
2022-09-17T06:07:10.427Z,83.24
2022-09-17T06:10:02.419Z,83.19
2022-09-17T06:12:59.721Z,82.98
2022-09-17T06:15:41.539Z,82.83
2022-09-17T06:18:33.974Z,82.59
2022-09-17T06:21:26.071Z,81.72
2022-09-17T06:24:18.134Z,80.21
2022-09-17T06:27:10.235Z,79.45
2022-09-17T06:30:05.152Z,78.92
2022-09-17T06:32:57.419Z,78.04
2022-09-17T06:35:40.726Z,78.32
2022-09-17T06:38:12.597Z,78.51
2022-09-17T06:40:44.493Z,78.49
2022-09-17T06:43:16.350Z,76.70
2022-09-17T06:46:09.484Z,77.04
2022-09-17T06:49:01.570Z,76.73
2022-09-17T06:51:54.227Z,76.41
2022-09-17T06:54:35.282Z,75.54
2022-09-17T06:57:27.575Z,75.71
2022-09-17T07:00:20.233Z,75.49
2022-09-17T07:03:06.535Z,74.97
2022-09-17T07:05:54.233Z,74.06
2022-09-17T07:08:47.199Z,74.51
2022-09-17T07:11:39.606Z,74.81
2022-09-17T07:14:14.568Z,74.96
2022-09-17T07:17:08.023Z,75.20
2022-09-17T07:20:00.268Z,75.40
2022-09-17T07:22:59.574Z,75.62
2022-09-17T07:25:42.639Z,75.27
2022-09-17T07:28:17.999Z,74.53
2022-09-17T07:31:16.162Z,73.61
2022-09-17T07:34:09.086Z,73.82
2022-09-17T07:37:01.075Z,73.50
2022-09-17T07:39:36.451Z,72.64
2022-09-17T07:42:28.737Z,72.08
2022-09-17T07:45:20.811Z,72.32
2022-09-17T07:47:52.653Z,72.22
2022-09-17T07:50:44.827Z,72.75
2022-09-17T07:53:17.146Z,72.67
2022-09-17T07:55:55.821Z,72.03
2022-09-17T07:58:40.608Z,70.65
2022-09-17T08:01:15.593Z,68.48
2022-09-17T08:04:08.327Z,67.46
2022-09-17T08:06:50.482Z,68.28
2022-09-17T08:09:31.592Z,68.47
2022-09-17T08:12:03.893Z,66.61
2022-09-17T08:14:41.155Z,64.90
2022-09-17T08:17:16.133Z,64.97
2022-09-17T08:19:48.008Z,65.67
2022-09-17T08:22:20.376Z,65.25
2022-09-17T08:24:52.314Z,65.20
2022-09-17T08:27:44.959Z,64.37
2022-09-17T08:30:29.783Z,63.91
2022-09-17T08:33:22.486Z,62.73
2022-09-17T08:36:03.675Z,63.11
2022-09-17T08:38:58.670Z,62.66
2022-09-17T08:42:02.996Z,62.22
2022-09-17T08:45:00.472Z,61.73
2022-09-17T08:47:39.148Z,61.79
2022-09-17T08:50:34.303Z,61.98
2022-09-17T08:53:51.183Z,61.09
2022-09-17T08:56:46.666Z,59.76
2022-09-17T08:59:45.596Z,58.80
2022-09-17T09:02:33.851Z,57.11
2022-09-17T09:05:33.303Z,56.81
2022-09-17T09:08:20.746Z,56.74
2022-09-17T09:11:14.961Z,57.04
2022-09-17T09:14:01.577Z,56.28
2022-09-17T09:16:40.815Z,54.61
2022-09-17T09:19:40.494Z,54.54
2022-09-17T09:22:25.881Z,53.46
2022-09-17T09:25:33.271Z,53.42
2022-09-17T09:28:39.617Z,52.91
2022-09-17T09:31:40.683Z,53.54
2022-09-17T09:34:38.365Z,52.85
2022-09-17T09:37:32.690Z,52.31
2022-09-17T09:40:31.611Z,51.78
2022-09-17T09:43:46.629Z,53.06
2022-09-17T09:47:13.515Z,52.61
2022-09-17T09:50:13.979Z,53.34
2022-09-17T09:53:20.662Z,51.90
2022-09-17T09:56:07.558Z,51.96
2022-09-17T09:58:59.800Z,51.14
2022-09-17T10:01:52.618Z,51.37
2022-09-17T10:04:32.480Z,49.76
2022-09-17T10:07:24.736Z,49.56
2022-09-17T10:10:17.123Z,50.76
2022-09-17T10:13:14.941Z,52.12
2022-09-17T10:15:49.647Z,50.06
2022-09-17T10:18:26.397Z,48.87
2022-09-17T10:21:02.457Z,48.17
2022-09-17T10:23:55.620Z,49.74
2022-09-17T10:26:34.050Z,50.24
2022-09-17T10:29:17.032Z,49.97
2022-09-17T10:32:15.354Z,50.77
2022-09-17T10:35:05.412Z,51.68
2022-09-17T10:37:51.037Z,50.52
2022-09-17T10:40:35.092Z,49.32
2022-09-17T10:43:26.772Z,50.13
2022-09-17T10:46:03.810Z,51.63
2022-09-17T10:48:58.402Z,50.29
2022-09-17T10:51:41.633Z,49.99
2022-09-17T10:54:53.787Z,49.58
2022-09-17T10:58:04.169Z,48.96
2022-09-17T11:01:03.349Z,47.42
2022-09-17T11:04:00.616Z,47.91
2022-09-17T11:07:24.240Z,48.66
2022-09-17T11:10:18.303Z,49.62
2022-09-17T11:13:20.307Z,47.92
2022-09-17T11:16:13.273Z,49.55
2022-09-17T11:18:47.091Z,49.72
2022-09-17T11:21:41.571Z,49.94
2022-09-17T11:24:48.922Z,49.27
2022-09-17T11:27:53.282Z,46.27
2022-09-17T11:30:43.063Z,47.51
2022-09-17T11:33:33.651Z,47.48
2022-09-17T11:36:33.180Z,47.14
2022-09-17T11:39:16.886Z,47.12
2022-09-17T11:42:14.726Z,48.57
2022-09-17T11:44:53.155Z,48.00
2022-09-17T11:47:38.883Z,48.65
2022-09-17T11:50:27.182Z,47.74
2022-09-17T11:53:23.682Z,47.77
2022-09-17T11:56:11.871Z,49.49
2022-09-17T11:58:44.625Z,48.61
2022-09-17T12:01:41.746Z,48.59
2022-09-17T12:04:41.848Z,48.19
2022-09-17T12:07:36.120Z,48.26
2022-09-17T12:10:46.236Z,47.25
2022-09-17T12:13:37.854Z,45.34
2022-09-17T12:16:35.157Z,46.43
2022-09-17T12:19:27.229Z,47.04
2022-09-17T12:22:24.309Z,45.77
2022-09-17T12:25:14.495Z,45.35
2022-09-17T12:28:06.241Z,46.12
2022-09-17T12:31:03.535Z,46.89
2022-09-17T12:33:47.462Z,47.40
2022-09-17T12:36:29.785Z,46.03
2022-09-17T12:39:31.638Z,46.74
2022-09-17T12:42:18.699Z,46.52
2022-09-17T12:45:15.601Z,45.75
2022-09-17T12:48:22.251Z,46.54
2022-09-17T12:51:04.714Z,47.05
2022-09-17T12:53:44.078Z,47.64
2022-09-17T12:56:32.228Z,48.44
2022-09-17T12:59:19.433Z,47.90
2022-09-17T13:01:57.082Z,46.59
2022-09-17T13:05:01.273Z,46.66
2022-09-17T13:08:05.515Z,46.92
2022-09-17T13:10:51.631Z,47.09
2022-09-17T13:13:38.132Z,47.74
2022-09-17T13:16:23.964Z,48.86
2022-09-17T13:19:18.239Z,49.18
2022-09-17T13:21:55.732Z,49.29
2022-09-17T13:24:32.776Z,49.68
2022-09-17T13:27:06.839Z,50.02
2022-09-17T13:30:03.084Z,49.30
2022-09-17T13:32:55.253Z,48.62
2022-09-17T13:35:51.177Z,49.47
2022-09-17T13:38:45.253Z,48.84
2022-09-17T13:41:40.042Z,48.25
2022-09-17T13:44:13.034Z,47.79
2022-09-17T13:46:45.435Z,48.78
2022-09-17T13:49:20.024Z,48.09
2022-09-17T13:51:55.507Z,48.42
2022-09-17T13:54:39.916Z,48.64
2022-09-17T13:57:16.835Z,49.79
2022-09-17T14:00:00.939Z,49.09
2022-09-17T14:02:38.587Z,48.99
2022-09-17T14:05:36.138Z,49.02
2022-09-17T14:08:31.127Z,49.03
2022-09-17T14:11:37.155Z,49.86
2022-09-17T14:14:49.713Z,50.09
2022-09-17T14:17:54.072Z,50.41
2022-09-17T14:20:28.305Z,49.66
2022-09-17T14:23:04.004Z,49.45
2022-09-17T14:25:43.654Z,49.90
2022-09-17T14:28:25.056Z,50.01
2022-09-17T14:30:59.398Z,49.49
2022-09-17T14:33:33.074Z,49.93
2022-09-17T14:36:12.834Z,50.47
2022-09-17T14:38:48.113Z,51.00
2022-09-17T14:41:26.336Z,51.06
2022-09-17T14:44:01.510Z,50.94
2022-09-17T14:46:37.946Z,50.50
2022-09-17T14:49:27.341Z,50.29
2022-09-17T14:52:00.035Z,50.50
2022-09-17T14:55:09.755Z,50.95
2022-09-17T14:57:41.866Z,51.00
2022-09-17T15:00:21.915Z,51.54
2022-09-17T15:02:56.280Z,51.88
2022-09-17T15:05:33.413Z,52.45
2022-09-17T15:08:14.449Z,52.73
2022-09-17T15:10:53.097Z,52.78
2022-09-17T15:13:29.468Z,52.96
2022-09-17T15:16:08.095Z,53.43
2022-09-17T15:18:44.272Z,54.30
2022-09-17T15:21:40.332Z,54.95
2022-09-17T15:24:22.553Z,54.94
2022-09-17T15:26:59.667Z,55.01
2022-09-17T15:29:35.194Z,55.44
2022-09-17T15:32:11.637Z,55.85
2022-09-17T15:34:44.067Z,56.28
2022-09-17T15:37:28.572Z,56.01
2022-09-17T15:40:00.717Z,56.22
2022-09-17T15:42:33.533Z,56.29
2022-09-17T15:45:21.206Z,56.62
2022-09-17T15:47:57.504Z,56.61
2022-09-17T15:50:30.780Z,56.93
2022-09-17T15:53:15.594Z,57.33
2022-09-17T15:55:59.895Z,57.76
2022-09-17T15:58:55.517Z,58.44
2022-09-17T16:01:55.797Z,58.69
2022-09-17T16:04:30.794Z,59.00
2022-09-17T16:07:21.016Z,59.45
2022-09-17T16:09:53.989Z,59.99
2022-09-17T16:12:28.873Z,59.95
2022-09-17T16:15:02.231Z,60.57
2022-09-17T16:17:44.913Z,61.07
2022-09-17T16:20:22.205Z,61.60
2022-09-17T16:22:55.110Z,62.08
2022-09-17T16:25:29.630Z,62.37
2022-09-17T16:28:05.283Z,62.76
2022-09-17T16:30:37.578Z,63.13
2022-09-17T16:33:11.668Z,63.44
2022-09-17T16:35:44.857Z,63.95
2022-09-17T16:38:17.133Z,64.48
2022-09-17T16:40:48.965Z,64.87
2022-09-17T16:43:21.167Z,65.00
2022-09-17T16:46:02.858Z,65.36
2022-09-17T16:48:35.594Z,65.69
2022-09-17T16:51:11.778Z,65.42
2022-09-17T16:53:43.848Z,65.47
2022-09-17T16:56:17.268Z,65.53
2022-09-17T16:58:49.493Z,65.79
2022-09-17T17:01:21.724Z,65.82
2022-09-17T17:03:55.867Z,66.08
2022-09-17T17:06:28.053Z,66.37
2022-09-17T17:09:01.169Z,66.81
2022-09-17T17:11:33.089Z,67.07
2022-09-17T17:14:06.336Z,67.51
2022-09-17T17:16:40.792Z,67.55
2022-09-17T17:19:12.871Z,67.79
2022-09-17T17:21:47.171Z,68.06
2022-09-17T17:24:19.275Z,68.06
2022-09-17T17:26:51.116Z,68.01
2022-09-17T17:29:22.880Z,68.36
2022-09-17T17:31:54.660Z,68.43
2022-09-17T17:34:26.517Z,68.50
2022-09-17T17:36:58.454Z,68.88
2022-09-17T17:39:30.300Z,68.91
2022-09-17T17:42:02.070Z,69.05
2022-09-17T17:44:33.926Z,69.34
2022-09-17T17:47:06.757Z,69.41
2022-09-17T17:49:38.470Z,69.42
2022-09-17T17:52:10.359Z,69.35
2022-09-17T17:54:42.099Z,69.31
2022-09-17T17:57:14.004Z,69.49
2022-09-17T17:59:45.725Z,69.48
2022-09-17T18:02:17.694Z,69.57
2022-09-17T18:04:49.638Z,69.77
2022-09-17T18:07:21.603Z,69.95
2022-09-17T18:09:53.400Z,69.95
2022-09-17T18:12:27.035Z,70.05
2022-09-17T18:14:58.950Z,70.08
2022-09-17T18:17:31.628Z,70.26
2022-09-17T18:20:04.900Z,70.25
2022-09-17T18:22:37.161Z,70.32
2022-09-17T18:25:10.241Z,70.35
2022-09-17T18:27:42.777Z,70.30
2022-09-17T18:30:15.841Z,70.60
2022-09-17T18:32:50.084Z,70.80
2022-09-17T18:35:23.543Z,70.84
2022-09-17T18:37:55.381Z,71.28
2022-09-17T18:40:27.515Z,71.30
2022-09-17T18:42:59.475Z,71.37
2022-09-17T18:45:32.151Z,71.53
2022-09-17T18:48:06.110Z,71.50
2022-09-17T18:50:38.148Z,71.48
2022-09-17T18:53:09.951Z,71.47
2022-09-17T18:55:46.856Z,71.68
2022-09-17T18:58:18.743Z,71.55
2022-09-17T19:00:50.558Z,71.60
2022-09-17T19:03:22.320Z,71.71
2022-09-17T19:05:54.285Z,72.03
2022-09-17T19:08:29.218Z,72.02
2022-09-17T19:11:03.787Z,72.23
2022-09-17T19:13:37.855Z,72.38
2022-09-17T19:16:11.890Z,72.38
2022-09-17T19:18:54.326Z,72.44
2022-09-17T19:21:26.652Z,72.53
2022-09-17T19:23:58.686Z,72.51
2022-09-17T19:26:30.597Z,72.62
2022-09-17T19:29:07.328Z,72.71
2022-09-17T19:31:39.383Z,72.68
2022-09-17T19:34:11.626Z,72.78
2022-09-17T19:36:52.433Z,73.12
2022-09-17T19:39:29.845Z,73.31
2022-09-17T19:42:01.659Z,73.58
2022-09-17T19:44:34.449Z,73.58
2022-09-17T19:47:06.530Z,73.77
2022-09-17T19:49:38.672Z,73.86
2022-09-17T19:52:13.094Z,74.14
2022-09-17T19:54:44.981Z,74.30
2022-09-17T19:57:16.851Z,74.50
2022-09-17T19:59:48.705Z,74.58
2022-09-17T20:02:20.767Z,74.77
2022-09-17T20:04:55.317Z,74.93
2022-09-17T20:07:28.816Z,75.13
2022-09-17T20:10:00.819Z,75.31
2022-09-17T20:12:32.647Z,75.52
2022-09-17T20:15:04.769Z,75.65
2022-09-17T20:17:36.951Z,75.99
2022-09-17T20:20:10.665Z,76.34
2022-09-17T20:22:42.400Z,76.62
2022-09-17T20:25:14.255Z,77.12
2022-09-17T20:27:46.308Z,77.42
2022-09-17T20:30:23.985Z,77.56
2022-09-17T20:32:57.166Z,77.72
2022-09-17T20:35:28.946Z,77.86
2022-09-17T20:39:06.718Z,78.12
2022-09-17T20:40:54.051Z,78.13
2022-09-17T20:43:25.958Z,78.12
2022-09-17T20:45:58.078Z,78.35
2022-09-17T20:48:30.517Z,78.24
2022-09-17T20:51:04.073Z,78.37
2022-09-17T20:53:39.722Z,78.41
2022-09-17T20:56:13.250Z,78.61
2022-09-17T20:58:50.198Z,78.60
2022-09-17T21:01:24.191Z,78.58
2022-09-17T21:04:00.613Z,78.81
2022-09-17T21:06:34.234Z,78.72
2022-09-17T21:09:10.376Z,78.64
2022-09-17T21:11:42.868Z,78.69
2022-09-17T21:14:15.890Z,78.85
2022-09-17T21:16:49.097Z,78.92
2022-09-17T21:19:23.144Z,79.00
2022-09-17T21:21:56.371Z,79.05
2022-09-17T21:24:28.283Z,79.18
2022-09-17T21:27:00.122Z,79.13
2022-09-17T21:29:31.990Z,79.22
2022-09-17T21:32:03.950Z,79.21
2022-09-17T21:34:35.780Z,79.09
2022-09-17T21:37:07.741Z,79.38
2022-09-17T21:39:42.702Z,79.39
2022-09-17T21:42:14.639Z,79.19
2022-09-17T21:44:46.488Z,79.13
2022-09-17T21:47:18.361Z,78.98
2022-09-17T21:49:50.370Z,79.04
2022-09-17T21:52:22.229Z,79.01
2022-09-17T21:54:56.433Z,78.85
2022-09-17T21:57:28.816Z,79.10
2022-09-17T22:00:00.834Z,78.92
2022-09-17T22:02:33.253Z,79.00
2022-09-17T22:05:05.654Z,79.01
2022-09-17T22:07:37.532Z,78.96
2022-09-17T22:10:14.341Z,79.12
2022-09-17T22:12:46.160Z,79.07
2022-09-17T22:15:18.227Z,79.22
2022-09-17T22:17:50.038Z,79.22
2022-09-17T22:20:21.975Z,79.34
2022-09-17T22:22:54.050Z,79.37
2022-09-17T22:25:25.873Z,79.67
2022-09-17T22:28:19.616Z,79.83
2022-09-17T22:30:49.524Z,79.84
2022-09-17T22:33:21.191Z,79.96
2022-09-17T22:35:52.934Z,80.09
2022-09-17T22:38:27.383Z,80.21
2022-09-17T22:41:03.261Z,80.42
2022-09-17T22:43:35.615Z,80.69
2022-09-17T22:46:16.353Z,80.61
2022-09-17T22:48:48.786Z,80.97
2022-09-17T22:51:20.773Z,81.26
2022-09-17T22:53:52.906Z,81.43
2022-09-17T22:56:29.041Z,81.47
2022-09-17T22:59:01.143Z,81.58
2022-09-17T23:01:36.364Z,81.74
2022-09-17T23:04:11.914Z,81.64
2022-09-17T23:06:46.704Z,81.91
2022-09-17T23:09:18.451Z,82.02
2022-09-17T23:11:50.310Z,82.17
2022-09-17T23:14:22.050Z,82.27
2022-09-17T23:16:53.956Z,82.43
2022-09-17T23:19:31.279Z,82.55
2022-09-17T23:22:03.034Z,82.88
2022-09-17T23:24:37.853Z,82.93
2022-09-17T23:27:09.753Z,82.94
2022-09-17T23:29:41.550Z,83.11
2022-09-17T23:32:15.523Z,83.38
2022-09-17T23:34:47.392Z,83.52
2022-09-17T23:37:22.531Z,83.88
2022-09-17T23:39:54.299Z,83.92
2022-09-17T23:42:26.182Z,84.06
2022-09-17T23:44:57.931Z,84.28
2022-09-17T23:47:29.838Z,84.42
2022-09-17T23:50:01.652Z,84.53
2022-09-17T23:52:33.589Z,84.60
2022-09-17T23:55:06.101Z,84.43
2022-09-17T23:57:37.826Z,84.40
